Flying Cloud — WDG8551 — position and weather

sailwx.info

Track history (hours):
 
Tides and Currents Weather Stations Pressure Air Temp Water Temp Dewpoint Dewpoint Depression Visibility Wind Speed Wind Dir Waves Ship Positions

Flying Cloud

Owner: Boston Harbor Cruises, Boston, MA. More information available from US FCC via Universal Licensing System and Coast Guard Vessel Documentation Center.

Last reported at 2018-Jul-10 17:22 UTC. Time now 2018-Jul-16 10:32 UTC.
Position N 42°15' W 070°58'.

Length 23 m.

Type: High speed craft. MMSI: 367578710.

Date/timePositionNaut miles runAvg speedWind from/ knotsBaromVisibWave heightAir tempDewpointWater temp
2018-Jul-10 17:22N 42°15' W 070°58'0 0.0
2018-Jul-10 00:29N 42°15' W 070°58'  
2018-Jul-05 19:40N 42°15' W 070°58'0 0.1
2018-Jul-05 19:30N 42°15' W 070°58'1 1.9
2018-Jul-05 19:00N 42°15' W 070°57'2 3.1
2018-Jul-05 18:30N 42°16' W 070°55'816.3
2018-Jul-05 18:00N 42°22' W 071°03'3 6.2
2018-Jul-05 17:30N 42°20' W 070°59'610.1
2018-Jul-05 16:56N 42°15' W 070°55'613.4
2018-Jul-05 16:30N 42°20' W 070°60'3 5.8
2018-Jul-05 16:00N 42°22' W 071°03'0 0.0
2018-Jul-05 15:30N 42°22' W 071°03'0 0.5
2018-Jul-05 15:00N 42°22' W 071°03'9 8.4
2018-Jul-05 13:59N 42°15' W 070°55'714.1
2018-Jul-05 13:30N 42°21' W 071°01'2 3.2
2018-Jul-05 13:00N 42°22' W 071°02'611.5
2018-Jul-05 12:27N 42°18' W 070°55'715.3
2018-Jul-05 12:00N 42°22' W 071°03'7 8.8
2018-Jul-05 11:14N 42°18' W 070°55'0 0.4
2018-Jul-05 11:00N 42°18' W 070°55'713.0
2018-Jul-05 10:30N 42°22' W 071°03'611.5
2018-Jul-05 09:56N 42°18' W 070°55'3 6.7
2018-Jul-05 09:30N 42°15' W 070°55'2 4.7
2018-Jul-05 09:00N 42°15' W 070°58'2 0.4
2018-Jul-05 03:08N 42°16' W 070°56'1 5.3
2018-Jul-05 03:00N 42°15' W 070°55'714.0
2018-Jul-05 02:30N 42°21' W 071°01'1 2.2
2018-Jul-05 02:00N 42°21' W 071°02'815.8
2018-Jul-05 01:30N 42°15' W 070°55'4 8.8
2018-Jul-05 01:00N 42°19' W 070°59'4 7.5
2018-Jul-05 00:30N 42°21' W 071°02'816.0
2018-Jul-05 00:00N 42°15' W 070°55'1 2.3
2018-Jul-04 23:30N 42°16' W 070°56'815.1
2018-Jul-04 23:00N 42°22' W 071°03'4 8.4
2018-Jul-04 22:30N 42°20' W 070°58'510.4
2018-Jul-04 22:00N 42°15' W 070°55'2 4.5
2018-Jul-04 21:30N 42°17' W 070°56'713.8
2018-Jul-04 21:00N 42°22' W 071°03'3 5.8
2018-Jul-04 20:30N 42°20' W 070°60'611.7
2018-Jul-04 20:00N 42°15' W 070°55'3 6.6
2018-Jul-04 19:30N 42°19' W 070°56'612.6
2018-Jul-04 19:00N 42°22' W 071°03'4 7.6
2018-Jul-04 18:30N 42°19' W 070°59'5 9.7
2018-Jul-04 18:00N 42°15' W 070°55'3 5.7
2018-Jul-04 17:30N 42°18' W 070°55'713.9
2018-Jul-04 17:00N 42°22' W 071°03'4 8.8
2018-Jul-04 16:30N 42°20' W 070°57'5 9.9
2018-Jul-04 16:00N 42°15' W 070°55'510.2
2018-Jul-04 15:30N 42°19' W 070°59'4 7.3
2018-Jul-04 15:00N 42°22' W 071°03'4 8.4
2018-Jul-04 14:30N 42°20' W 070°58'510.3
2018-Jul-04 14:00N 42°15' W 070°55'3 5.6
2018-Jul-04 13:30N 42°18' W 070°55'713.6
2018-Jul-04 13:00N 42°22' W 071°03'3 6.4
2018-Jul-04 12:30N 42°20' W 070°59'5 0.5
2018-Jul-04 02:52N 42°15' W 070°57'1 3.1
2018-Jul-04 02:30N 42°15' W 070°55'816.0
2018-Jul-04 02:00N 42°22' W 071°02'1 1.6
2018-Jul-04 01:31N 42°22' W 071°03'916.9
2018-Jul-04 01:00N 42°15' W 070°55'611.9
2018-Jul-04 00:31N 42°20' W 070°60'2 4.2
2018-Jul-04 00:00N 42°21' W 071°02'815.7
2018-Jul-03 23:30N 42°15' W 070°55'3 6.5
2018-Jul-03 23:01N 42°18' W 070°58'510.2
2018-Jul-03 22:30N 42°22' W 071°02'612.7
2018-Jul-03 22:01N 42°18' W 070°55'713.1
2018-Jul-03 21:30N 42°22' W 071°03'1 2.0
2018-Jul-03 21:01N 42°22' W 071°02'815.0
2018-Jul-03 20:29N 42°15' W 070°55'3 6.0
2018-Jul-03 20:01N 42°18' W 070°57'611.5
2018-Jul-03 19:30N 42°22' W 071°03'817.0
2018-Jul-03 19:00N 42°15' W 070°55'0 0.8
2018-Jul-03 18:31N 42°16' W 070°55'816.6
2018-Jul-03 18:00N 42°22' W 071°03'3 5.4
2018-Jul-03 17:31N 42°20' W 070°60'611.6
2018-Jul-03 16:59N 42°15' W 070°55'612.4
2018-Jul-03 16:31N 42°20' W 071°00'3 5.5
2018-Jul-03 16:00N 42°22' W 071°03'0 0.0
2018-Jul-03 15:30N 42°22' W 071°03'0 0.4
2018-Jul-03 15:00N 42°22' W 071°03'4 8.2
2018-Jul-03 14:30N 42°20' W 070°58'510.1
2018-Jul-03 14:00N 42°15' W 070°55'714.4
2018-Jul-03 13:30N 42°21' W 071°01'1 2.0
2018-Jul-03 13:00N 42°21' W 071°02'611.3
2018-Jul-03 12:28N 42°18' W 070°55'714.5
2018-Jul-03 12:00N 42°22' W 071°03'713.3
2018-Jul-03 11:30N 42°18' W 070°55'0 0.3
2018-Jul-03 11:00N 42°18' W 070°55'713.3
2018-Jul-03 10:31N 42°22' W 071°03'711.3
2018-Jul-03 09:55N 42°18' W 070°55'3 6.8
2018-Jul-03 09:30N 42°15' W 070°55'2 4.7
2018-Jul-03 09:00N 42°15' W 070°58'0 0.0
2018-Jul-03 03:12N 42°15' W 070°58'1 6.6
2018-Jul-03 03:00N 42°15' W 070°57'3 6.3
2018-Jul-03 02:30N 42°18' W 070°55'0 0.0
2018-Jul-03 02:00N 42°18' W 070°55'4 8.6
2018-Jul-03 01:30N 42°20' W 071°00'2 4.7
2018-Jul-03 01:00N 42°22' W 071°03'816.9
2018-Jul-03 00:30N 42°15' W 070°55'4 8.2
2018-Jul-03 00:01N 42°18' W 070°59'5 9.1
2018-Jul-02 23:30N 42°22' W 071°03'816.7
2018-Jul-02 23:00N 42°16' W 070°55'3 5.0
2018-Jul-02 22:30N 42°18' W 070°55'713.4
2018-Jul-02 22:00N 42°22' W 071°03'5 9.8
2018-Jul-02 21:30N 42°18' W 070°58'2 4.4
2018-Jul-02 21:01N 42°18' W 070°56'713.7
2018-Jul-02 20:30N 42°22' W 071°03'510.1
2018-Jul-02 20:00N 42°18' W 070°58'3 6.5
2018-Jul-02 19:30N 42°16' W 070°55'4 7.0
2018-Jul-02 19:01N 42°19' W 070°57'5 9.9
2018-Jul-02 18:31N 42°22' W 071°03'816.7
2018-Jul-02 18:00N 42°15' W 070°55'4 7.6
2018-Jul-02 17:30N 42°19' W 070°56'611.7
2018-Jul-02 17:00N 42°22' W 071°03'4 8.4
2018-Jul-02 16:31N 42°20' W 070°58'510.4
2018-Jul-02 16:00N 42°15' W 070°55'3 6.5
2018-Jul-02 15:30N 42°18' W 070°56'612.4
2018-Jul-02 15:00N 42°22' W 071°03'0 0.0
2018-Jul-02 14:30N 42°22' W 071°03'0 0.0
2018-Jul-02 13:58N 42°22' W 071°03'0 0.0
2018-Jul-02 13:31N 42°22' W 071°03'713.5
2018-Jul-02 13:01N 42°18' W 070°55'713.4
2018-Jul-02 12:30N 42°22' W 071°03'713.5
2018-Jul-02 12:01N 42°18' W 070°55'713.5
2018-Jul-02 11:30N 42°22' W 071°03'713.1
2018-Jul-02 11:00N 42°18' W 070°55'2 4.8
2018-Jul-02 10:30N 42°16' W 070°55'3 5.0
2018-Jul-02 10:00N 42°15' W 070°58'0 0.0
2018-Jul-02 09:30N 42°15' W 070°58'  
Track history (hours):
 
Tides and Currents Weather Stations Pressure Air Temp Water Temp Dewpoint Dewpoint Depression Visibility Wind Speed Wind Dir Waves Ship Positions

Flying Cloud

Owner: Boston Harbor Cruises, Boston, MA. More information available from US FCC via Universal Licensing System and Coast Guard Vessel Documentation Center.

Last reported at 2018-Jul-10 17:22 UTC. Time now 2018-Jul-16 10:32 UTC.
Position N 42°15' W 070°58'.

Length 23 m.

Type: High speed craft. MMSI: 367578710.

Date/timePositionNaut miles runAvg speedWind from/ knotsBaromVisibWave heightAir tempDewpointWater temp
2018-Jul-10 17:22N 42°15' W 070°58'0 0.0
2018-Jul-10 00:29N 42°15' W 070°58'  
2018-Jul-05 19:40N 42°15' W 070°58'0 0.1
2018-Jul-05 19:30N 42°15' W 070°58'1 1.9
2018-Jul-05 19:00N 42°15' W 070°57'2 3.1
2018-Jul-05 18:30N 42°16' W 070°55'816.3
2018-Jul-05 18:00N 42°22' W 071°03'3 6.2
2018-Jul-05 17:30N 42°20' W 070°59'610.1
2018-Jul-05 16:56N 42°15' W 070°55'613.4
2018-Jul-05 16:30N 42°20' W 070°60'3 5.8
2018-Jul-05 16:00N 42°22' W 071°03'0 0.0
2018-Jul-05 15:30N 42°22' W 071°03'0 0.5
2018-Jul-05 15:00N 42°22' W 071°03'9 8.4
2018-Jul-05 13:59N 42°15' W 070°55'714.1
2018-Jul-05 13:30N 42°21' W 071°01'2 3.2
2018-Jul-05 13:00N 42°22' W 071°02'611.5
2018-Jul-05 12:27N 42°18' W 070°55'715.3
2018-Jul-05 12:00N 42°22' W 071°03'7 8.8
2018-Jul-05 11:14N 42°18' W 070°55'0 0.4
2018-Jul-05 11:00N 42°18' W 070°55'713.0
2018-Jul-05 10:30N 42°22' W 071°03'611.5
2018-Jul-05 09:56N 42°18' W 070°55'3 6.7
2018-Jul-05 09:30N 42°15' W 070°55'2 4.7
2018-Jul-05 09:00N 42°15' W 070°58'2 0.4
2018-Jul-05 03:08N 42°16' W 070°56'1 5.3
2018-Jul-05 03:00N 42°15' W 070°55'714.0
2018-Jul-05 02:30N 42°21' W 071°01'1 2.2
2018-Jul-05 02:00N 42°21' W 071°02'815.8
2018-Jul-05 01:30N 42°15' W 070°55'4 8.8
2018-Jul-05 01:00N 42°19' W 070°59'4 7.5
2018-Jul-05 00:30N 42°21' W 071°02'816.0
2018-Jul-05 00:00N 42°15' W 070°55'1 2.3
2018-Jul-04 23:30N 42°16' W 070°56'815.1
2018-Jul-04 23:00N 42°22' W 071°03'4 8.4
2018-Jul-04 22:30N 42°20' W 070°58'510.4
2018-Jul-04 22:00N 42°15' W 070°55'2 4.5
2018-Jul-04 21:30N 42°17' W 070°56'713.8
2018-Jul-04 21:00N 42°22' W 071°03'3 5.8
2018-Jul-04 20:30N 42°20' W 070°60'611.7
2018-Jul-04 20:00N 42°15' W 070°55'3 6.6
2018-Jul-04 19:30N 42°19' W 070°56'612.6
2018-Jul-04 19:00N 42°22' W 071°03'4 7.6
2018-Jul-04 18:30N 42°19' W 070°59'5 9.7
2018-Jul-04 18:00N 42°15' W 070°55'3 5.7
2018-Jul-04 17:30N 42°18' W 070°55'713.9
2018-Jul-04 17:00N 42°22' W 071°03'4 8.8
2018-Jul-04 16:30N 42°20' W 070°57'5 9.9
2018-Jul-04 16:00N 42°15' W 070°55'510.2
2018-Jul-04 15:30N 42°19' W 070°59'4 7.3
2018-Jul-04 15:00N 42°22' W 071°03'4 8.4
2018-Jul-04 14:30N 42°20' W 070°58'510.3
2018-Jul-04 14:00N 42°15' W 070°55'3 5.6
2018-Jul-04 13:30N 42°18' W 070°55'713.6
2018-Jul-04 13:00N 42°22' W 071°03'3 6.4
2018-Jul-04 12:30N 42°20' W 070°59'5 0.5
2018-Jul-04 02:52N 42°15' W 070°57'1 3.1
2018-Jul-04 02:30N 42°15' W 070°55'816.0
2018-Jul-04 02:00N 42°22' W 071°02'1 1.6
2018-Jul-04 01:31N 42°22' W 071°03'916.9
2018-Jul-04 01:00N 42°15' W 070°55'611.9
2018-Jul-04 00:31N 42°20' W 070°60'2 4.2
2018-Jul-04 00:00N 42°21' W 071°02'815.7
2018-Jul-03 23:30N 42°15' W 070°55'3 6.5
2018-Jul-03 23:01N 42°18' W 070°58'510.2
2018-Jul-03 22:30N 42°22' W 071°02'612.7
2018-Jul-03 22:01N 42°18' W 070°55'713.1
2018-Jul-03 21:30N 42°22' W 071°03'1 2.0
2018-Jul-03 21:01N 42°22' W 071°02'815.0
2018-Jul-03 20:29N 42°15' W 070°55'3 6.0
2018-Jul-03 20:01N 42°18' W 070°57'611.5
2018-Jul-03 19:30N 42°22' W 071°03'817.0
2018-Jul-03 19:00N 42°15' W 070°55'0 0.8
2018-Jul-03 18:31N 42°16' W 070°55'816.6
2018-Jul-03 18:00N 42°22' W 071°03'3 5.4
2018-Jul-03 17:31N 42°20' W 070°60'611.6
2018-Jul-03 16:59N 42°15' W 070°55'612.4
2018-Jul-03 16:31N 42°20' W 071°00'3 5.5
2018-Jul-03 16:00N 42°22' W 071°03'0 0.0
2018-Jul-03 15:30N 42°22' W 071°03'0 0.4
2018-Jul-03 15:00N 42°22' W 071°03'4 8.2
2018-Jul-03 14:30N 42°20' W 070°58'510.1
2018-Jul-03 14:00N 42°15' W 070°55'714.4
2018-Jul-03 13:30N 42°21' W 071°01'1 2.0
2018-Jul-03 13:00N 42°21' W 071°02'611.3
2018-Jul-03 12:28N 42°18' W 070°55'714.5
2018-Jul-03 12:00N 42°22' W 071°03'713.3
2018-Jul-03 11:30N 42°18' W 070°55'0 0.3
2018-Jul-03 11:00N 42°18' W 070°55'713.3
2018-Jul-03 10:31N 42°22' W 071°03'711.3
2018-Jul-03 09:55N 42°18' W 070°55'3 6.8
2018-Jul-03 09:30N 42°15' W 070°55'2 4.7
2018-Jul-03 09:00N 42°15' W 070°58'0 0.0
2018-Jul-03 03:12N 42°15' W 070°58'1 6.6
2018-Jul-03 03:00N 42°15' W 070°57'3 6.3
2018-Jul-03 02:30N 42°18' W 070°55'0 0.0
2018-Jul-03 02:00N 42°18' W 070°55'4 8.6
2018-Jul-03 01:30N 42°20' W 071°00'2 4.7
2018-Jul-03 01:00N 42°22' W 071°03'816.9
2018-Jul-03 00:30N 42°15' W 070°55'4 8.2
2018-Jul-03 00:01N 42°18' W 070°59'5 9.1
2018-Jul-02 23:30N 42°22' W 071°03'816.7
2018-Jul-02 23:00N 42°16' W 070°55'3 5.0
2018-Jul-02 22:30N 42°18' W 070°55'713.4
2018-Jul-02 22:00N 42°22' W 071°03'5 9.8
2018-Jul-02 21:30N 42°18' W 070°58'2 4.4
2018-Jul-02 21:01N 42°18' W 070°56'713.7
2018-Jul-02 20:30N 42°22' W 071°03'510.1
2018-Jul-02 20:00N 42°18' W 070°58'3 6.5
2018-Jul-02 19:30N 42°16' W 070°55'4 7.0
2018-Jul-02 19:01N 42°19' W 070°57'5 9.9
2018-Jul-02 18:31N 42°22' W 071°03'816.7
2018-Jul-02 18:00N 42°15' W 070°55'4 7.6
2018-Jul-02 17:30N 42°19' W 070°56'611.7
2018-Jul-02 17:00N 42°22' W 071°03'4 8.4
2018-Jul-02 16:31N 42°20' W 070°58'510.4
2018-Jul-02 16:00N 42°15' W 070°55'3 6.5
2018-Jul-02 15:30N 42°18' W 070°56'612.4
2018-Jul-02 15:00N 42°22' W 071°03'0 0.0
2018-Jul-02 14:30N 42°22' W 071°03'0 0.0
2018-Jul-02 13:58N 42°22' W 071°03'0 0.0
2018-Jul-02 13:31N 42°22' W 071°03'713.5
2018-Jul-02 13:01N 42°18' W 070°55'713.4
2018-Jul-02 12:30N 42°22' W 071°03'713.5
2018-Jul-02 12:01N 42°18' W 070°55'713.5
2018-Jul-02 11:30N 42°22' W 071°03'713.1
2018-Jul-02 11:00N 42°18' W 070°55'2 4.8
2018-Jul-02 10:30N 42°16' W 070°55'3 5.0
2018-Jul-02 10:00N 42°15' W 070°58'0 0.0
2018-Jul-02 09:30N 42°15' W 070°58'  

Dump ship's entire track history